Quincy, WA

7:05 AM PDT en Agosto 29, 2014 (GMT -0700)
Winchester | Change Station
CLOSE
Current Station
Estación meteorológica personal
Location: Quincy, WA
Altura: 1350 ft
Estaciones meteorológicas cercanas

Alt 1350 ft 47.26 °N, 119.72 °W | Updated 14 seconds ago

Despejado
Despejado
59.8 ° F
Sensación térmica 59.8 ° F
N
0.0
Viento Variable Viento desde Oeste
Gusts 0.0 mph

Hoy
Alta -- | Baja -- ° F
--% Posibilidad de precipitaciones
Ayer
Alta -- | Baja -- ° F
Precip. -- pul
6:14 AM 7:45 PM
Creciente, 14% visible
Presión 29.88 pul
Visibilidad 10.0 Millas
Nubes Despejado
Punto de rocío 51 ° F
Humedad 74%
Precipitaciones -999.00 pul
Espesor de la nieve 0 in
UV 0 de una escala de 12
Polen 4.70 de una escala de 12
Calidad del aire No disponible.
Flu Activity No disponible.
METAR KEPH 291353Z AUTO 04005KT 10SM CLR 14/08 A2989 RMK AO2 SLP116 T01390078

More Conditions Fewer Conditions

Presión 29.88 pul
Visibilidad 10.0 Millas
Nubes Despejado
Punto de rocío 51 ° F
Humedad 74%
Precipitaciones -999.00 pul
Espesor de la nieve 0 in
UV 0 de una escala de 12
Polen 4.70 de una escala de 12
Calidad del aire No disponible.
Flu Activity No disponible.
METAR KEPH 291353Z AUTO 04005KT 10SM CLR 14/08 A2989 RMK AO2 SLP116 T01390078

More Conditions Fewer Conditions

10-Day Weather Forecast

Almanac

Astronomía

Aug. 29, 2014 Salida Puesta
Hora real 6:14 AM PDT 7:45 PM PDT
Crepúsculo civil 5:42 AM PDT 8:16 PM PDT
Crepúsculo náutico 5:04 AM PDT 8:55 PM PDT
Crepúsculo astronómico 4:22 AM PDT 9:37 PM PDT
Luna 10:27 AM PDT 9:26 PM PDT
Horas de luz 14h 33m
Horas de luz
13h 30m
Tomorrow will be 3m 15s shorter.
Creciente, 14% of the Moon is Illuminated
Hoy
Creciente
Sep 2
Cuarto creciente
Sep 8
Luna llena
Sep 15
Cuarto menguante
Sep 24
Nueva

Extremos de hoy

Máximos del estado Bajos del estado

Community

WunderPhotos

Upload Photos

1,748,240 ¡fotos cargadas!

Nearby

Grosos de nieve

Estación Profundido Altura
Trough 0 in 5300 ft
Upper Wheeler 0 in 4400 ft
Grouse Camp 0 in 5380 ft
Sasse Ridge 0 in 4200 ft
Stevens Pass 0 in 4070 ft

Actividad de terremotos

Ciudad Distance Mag. Tiempo y dato
No hay informes recientes de la actividad sísmica.
Magnitud mínima muestra es 2,5.

Temperaturas de aguas costeras

Lugar Temperatura
Sin partes meteorológicos de las estaciones

Estaciones meteorológicas cercanas